Time,TemperatureF,DewpointF,PressureIn,WindDirection,WindDirectionDegrees,WindSpeedMPH,WindSpeedGustMPH,Humidity,HourlyPrecipIn,Conditions,Clouds,dailyrainin,SoftwareType,DateUTC
2013-06-13 00:00:00,81.1,63.9,29.83,NNW,342,6.0,15.0,56,0.00,,---,0.00,VWS V14.01,2013-06-13 05:00:00,
2013-06-13 00:01:00,76.8,60.4,29.86,North,360,15.0,21.0,57,0.00,,---,0.00,VWS V14.01,2013-06-13 05:01:00,
2013-06-13 00:06:00,76.5,60.2,29.86,NNW,340,9.0,21.0,57,0.00,,---,0.00,VWS V14.01,2013-06-13 05:06:00,
2013-06-13 00:11:00,76.0,59.2,29.86,NNW,347,5.0,21.0,56,0.00,,---,0.00,VWS V14.01,2013-06-13 05:11:00,
2013-06-13 00:16:00,75.6,59.3,29.86,NNW,338,9.0,21.0,57,0.00,,---,0.00,VWS V14.01,2013-06-13 05:16:00,
2013-06-13 00:21:00,75.3,59.0,29.86,North,9,8.0,21.0,57,0.00,,---,0.00,VWS V14.01,2013-06-13 05:21:00,
2013-06-13 00:26:00,74.9,58.7,29.86,North,360,10.0,21.0,57,0.00,,---,0.00,VWS V14.01,2013-06-13 05:26:00,
2013-06-13 00:30:00,79.2,62.2,29.84,North,350,6.0,15.0,56,0.00,,---,0.00,VWS V14.01,2013-06-13 05:30:00,
2013-06-13 00:31:00,74.6,58.9,29.87,NNE,13,10.0,10.0,58,0.00,,---,0.00,VWS V14.01,2013-06-13 05:31:00,
2013-06-13 00:36:00,74.4,58.7,29.87,NW,319,6.0,14.0,58,0.00,,---,0.00,VWS V14.01,2013-06-13 05:36:00,
2013-06-13 00:41:00,74.0,58.3,29.87,NNW,330,9.0,14.0,58,0.00,,---,0.00,VWS V14.01,2013-06-13 05:41:00,
2013-06-13 00:46:00,73.5,57.8,29.88,NNW,343,16.0,20.0,58,0.00,,---,0.00,VWS V14.01,2013-06-13 05:46:00,
2013-06-13 00:51:00,73.0,57.4,29.88,NNW,332,13.0,20.0,58,0.00,,---,0.00,VWS V14.01,2013-06-13 05:51:00,
2013-06-13 00:56:00,72.7,57.6,29.88,NNW,344,3.0,22.0,59,0.00,,---,0.00,VWS V14.01,2013-06-13 05:56:00,
2013-06-13 01:00:00,77.0,60.6,29.86,NNE,17,15.0,19.0,57,0.00,,---,0.00,VWS V14.01,2013-06-13 06:00:00,
2013-06-13 01:01:00,72.3,57.2,29.89,NNW,341,11.0,11.0,59,0.00,,---,0.00,VWS V14.01,2013-06-13 06:01:00,
2013-06-13 01:06:00,71.8,56.7,29.89,WNW,302,10.0,15.0,59,0.00,,---,0.00,VWS V14.01,2013-06-13 06:06:00,
2013-06-13 01:11:00,71.5,56.4,29.89,NNE,26,7.0,15.0,59,0.00,,---,0.00,VWS V14.01,2013-06-13 06:11:00,
2013-06-13 01:16:00,71.3,56.2,29.89,NNW,341,9.0,18.0,59,0.00,,---,0.00,VWS V14.01,2013-06-13 06:16:00,
2013-06-13 01:21:00,70.9,56.3,29.89,North,355,6.0,18.0,60,0.00,,---,0.00,VWS V14.01,2013-06-13 06:21:00,
2013-06-13 01:26:00,70.8,56.2,29.89,North,10,9.0,18.0,60,0.00,,---,0.00,VWS V14.01,2013-06-13 06:26:00,
2013-06-13 01:30:00,74.6,58.9,29.87,NNW,345,6.0,21.0,58,0.00,,---,0.00,VWS V14.01,2013-06-13 06:30:00,
2013-06-13 01:31:00,70.4,55.9,29.89,NNW,339,8.0,12.0,60,0.00,,---,0.00,VWS V14.01,2013-06-13 06:31:00,
2013-06-13 01:36:00,70.3,55.3,29.89,NNE,28,10.0,13.0,59,0.00,,---,0.00,VWS V14.01,2013-06-13 06:36:00,
2013-06-13 01:41:00,70.1,55.6,29.89,North,5,5.0,13.0,60,0.00,,---,0.00,VWS V14.01,2013-06-13 06:41:00,
2013-06-13 01:46:00,69.8,54.8,29.90,North,10,2.0,13.0,59,0.00,,---,0.00,VWS V14.01,2013-06-13 06:46:00,
2013-06-13 01:50:00,69.6,54.7,29.90,NNW,347,10.0,13.0,59,0.00,,---,0.00,VWS V14.01,2013-06-13 06:50:00,
2013-06-13 01:55:00,69.3,54.4,29.90,NNW,333,10.0,13.0,59,0.00,,---,0.00,VWS V14.01,2013-06-13 06:55:00,
2013-06-13 02:00:00,69.1,54.7,29.91,North,355,9.0,9.0,60,0.00,,---,0.00,VWS V14.01,2013-06-13 07:00:00,
2013-06-13 02:05:00,68.9,54.5,29.91,NNW,327,9.0,14.0,60,0.00,,---,0.00,VWS V14.01,2013-06-13 07:05:00,
2013-06-13 02:10:00,68.8,54.4,29.91,NNW,330,6.0,14.0,60,0.00,,---,0.00,VWS V14.01,2013-06-13 07:10:00,
2013-06-13 02:15:00,68.4,54.4,29.91,NNW,327,9.0,14.0,61,0.00,,---,0.00,VWS V14.01,2013-06-13 07:15:00,
2013-06-13 02:20:00,68.3,54.3,29.91,NNE,31,5.0,14.0,61,0.00,,---,0.00,VWS V14.01,2013-06-13 07:20:00,
2013-06-13 02:25:00,67.9,54.0,29.91,NNW,346,5.0,14.0,61,0.00,,---,0.00,VWS V14.01,2013-06-13 07:25:00,
2013-06-13 02:30:00,67.8,53.9,29.91,North,10,5.0,8.0,61,0.00,,---,0.00,VWS V14.01,2013-06-13 07:30:00,
2013-06-13 02:35:00,67.6,54.1,29.91,North,5,8.0,12.0,62,0.00,,---,0.00,VWS V14.01,2013-06-13 07:35:00,
2013-06-13 02:40:00,67.6,54.1,29.91,NNE,15,4.0,12.0,62,0.00,,---,0.00,VWS V14.01,2013-06-13 07:40:00,
2013-06-13 02:45:00,67.3,53.8,29.92,North,5,5.0,12.0,62,0.00,,---,0.00,VWS V14.01,2013-06-13 07:45:00,
2013-06-13 02:50:00,67.1,54.1,29.92,North,355,5.0,12.0,63,0.00,,---,0.00,VWS V14.01,2013-06-13 07:50:00,
2013-06-13 02:55:00,66.9,53.9,29.92,NNW,342,2.0,12.0,63,0.00,,---,0.00,VWS V14.01,2013-06-13 07:55:00,
2013-06-13 03:00:00,66.8,53.8,29.92,NNW,336,6.0,6.0,63,0.00,,---,0.00,VWS V14.01,2013-06-13 08:00:00,
2013-06-13 03:05:00,66.4,53.9,29.92,North,355,2.0,9.0,64,0.00,,---,0.00,VWS V14.01,2013-06-13 08:05:00,
2013-06-13 03:10:00,66.3,53.8,29.92,North,360,6.0,9.0,64,0.00,,---,0.00,VWS V14.01,2013-06-13 08:10:00,
2013-06-13 03:15:00,66.3,53.8,29.92,NNW,345,5.0,10.0,64,0.00,,---,0.00,VWS V14.01,2013-06-13 08:15:00,
2013-06-13 03:20:00,66.1,54.0,29.92,North,350,6.0,10.0,65,0.00,,---,0.00,VWS V14.01,2013-06-13 08:20:00,
2013-06-13 03:25:00,66.0,53.9,29.92,North,10,7.0,10.0,65,0.00,,---,0.00,VWS V14.01,2013-06-13 08:25:00,
2013-06-13 03:30:00,66.0,53.9,29.93,NNE,24,7.0,8.0,65,0.00,,---,0.00,VWS V14.01,2013-06-13 08:30:00,
2013-06-13 03:35:00,65.8,53.7,29.93,NNW,346,5.0,8.0,65,0.00,,---,0.00,VWS V14.01,2013-06-13 08:35:00,
2013-06-13 03:40:00,65.6,54.0,29.93,North,9,5.0,11.0,66,0.00,,---,0.00,VWS V14.01,2013-06-13 08:40:00,
2013-06-13 03:45:00,65.5,53.8,29.93,NNE,15,4.0,11.0,66,0.00,,---,0.00,VWS V14.01,2013-06-13 08:45:00,
2013-06-13 03:50:00,65.3,53.7,29.93,NNW,331,4.0,11.0,66,0.00,,---,0.00,VWS V14.01,2013-06-13 08:50:00,
2013-06-13 03:55:00,65.3,53.7,29.93,North,5,4.0,11.0,66,0.00,,---,0.00,VWS V14.01,2013-06-13 08:55:00,
2013-06-13 04:00:00,65.2,54.0,29.93,North,5,8.0,11.0,67,0.00,,---,0.00,VWS V14.01,2013-06-13 09:00:00,
2013-06-13 04:05:00,65.0,53.8,29.93,NNW,348,6.0,9.0,67,0.00,,---,0.00,VWS V14.01,2013-06-13 09:05:00,
2013-06-13 04:10:00,64.8,53.6,29.93,North,355,4.0,9.0,67,0.00,,---,0.00,VWS V14.01,2013-06-13 09:10:00,
2013-06-13 04:15:00,64.7,53.5,29.93,NNW,342,2.0,9.0,67,0.00,,---,0.00,VWS V14.01,2013-06-13 09:15:00,
2013-06-13 04:20:00,64.5,53.3,29.93,North,10,3.0,9.0,67,0.00,,---,0.00,VWS V14.01,2013-06-13 09:20:00,
2013-06-13 04:25:00,64.3,53.1,29.93,North,9,4.0,9.0,67,0.00,,---,0.00,VWS V14.01,2013-06-13 09:25:00,
2013-06-13 04:30:00,64.2,53.4,29.93,NNW,340,6.0,9.0,68,0.00,,---,0.00,VWS V14.01,2013-06-13 09:30:00,
2013-06-13 04:35:00,64.2,53.4,29.93,North,349,3.0,8.0,68,0.00,,---,0.00,VWS V14.01,2013-06-13 09:35:00,
2013-06-13 04:40:00,64.0,53.2,29.93,NNW,336,4.0,11.0,68,0.00,,---,0.00,VWS V14.01,2013-06-13 09:40:00,
2013-06-13 04:45:00,63.9,53.1,29.93,North,355,2.0,11.0,68,0.00,,---,0.00,VWS V14.01,2013-06-13 09:45:00,
2013-06-13 04:50:00,63.9,53.1,29.93,North,355,4.0,11.0,68,0.00,,---,0.00,VWS V14.01,2013-06-13 09:50:00,
2013-06-13 04:55:00,63.7,53.0,29.93,North,5,3.0,11.0,68,0.00,,---,0.00,VWS V14.01,2013-06-13 09:55:00,
2013-06-13 05:00:00,63.5,52.8,29.93,NNW,337,4.0,11.0,68,0.00,,---,0.00,VWS V14.01,2013-06-13 10:00:00,
2013-06-13 05:05:00,63.5,53.2,29.93,North,360,6.0,8.0,69,0.00,,---,0.00,VWS V14.01,2013-06-13 10:05:00,
2013-06-13 05:10:00,63.4,53.1,29.93,NNW,333,7.0,8.0,69,0.00,,---,0.00,VWS V14.01,2013-06-13 10:10:00,
2013-06-13 05:15:00,63.4,53.1,29.93,NNE,23,4.0,8.0,69,0.00,,---,0.00,VWS V14.01,2013-06-13 10:15:00,
2013-06-13 05:20:00,63.2,52.9,29.93,NNE,14,4.0,8.0,69,0.00,,---,0.00,VWS V14.01,2013-06-13 10:20:00,
2013-06-13 05:25:00,63.1,52.8,29.93,NNE,21,3.0,8.0,69,0.00,,---,0.00,VWS V14.01,2013-06-13 10:25:00,
2013-06-13 05:30:00,62.9,52.6,29.93,NE,36,3.0,8.0,69,0.00,,---,0.00,VWS V14.01,2013-06-13 10:30:00,
2013-06-13 05:35:00,62.9,53.0,29.93,North,355,2.0,7.0,70,0.00,,---,0.00,VWS V14.01,2013-06-13 10:35:00,
2013-06-13 05:40:00,62.7,52.8,29.93,NNE,14,4.0,9.0,70,0.00,,---,0.00,VWS V14.01,2013-06-13 10:40:00,
2013-06-13 05:45:00,62.7,52.8,29.94,NNW,344,4.0,9.0,70,0.00,,---,0.00,VWS V14.01,2013-06-13 10:45:00,
2013-06-13 05:50:00,62.6,52.7,29.94,NNW,337,4.0,9.0,70,0.00,,---,0.00,VWS V14.01,2013-06-13 10:50:00,
2013-06-13 05:55:00,62.6,52.7,29.94,NNW,346,3.0,9.0,70,0.00,,---,0.00,VWS V14.01,2013-06-13 10:55:00,
2013-06-13 06:00:00,62.6,53.1,29.96,NNW,340,2.0,9.0,71,0.00,,---,0.00,VWS V14.01,2013-06-13 11:00:00,
2013-06-13 06:05:00,62.6,53.1,29.96,North,355,3.0,7.0,71,0.00,,---,0.00,VWS V14.01,2013-06-13 11:05:00,
2013-06-13 06:10:00,62.4,52.9,29.96,North,360,2.0,7.0,71,0.00,,---,0.00,VWS V14.01,2013-06-13 11:10:00,
2013-06-13 06:15:00,62.4,52.9,29.96,NNE,13,5.0,7.0,71,0.00,,---,0.00,VWS V14.01,2013-06-13 11:15:00,
2013-06-13 06:20:00,62.3,52.8,29.96,North,355,4.0,7.0,71,0.00,,---,0.00,VWS V14.01,2013-06-13 11:20:00,
2013-06-13 06:25:00,62.4,53.3,29.96,North,5,6.0,7.0,72,0.00,,---,0.00,VWS V14.01,2013-06-13 11:25:00,
2013-06-13 06:30:00,62.6,53.5,29.96,North,355,2.0,10.0,72,0.00,,---,0.00,VWS V14.01,2013-06-13 11:30:00,
2013-06-13 06:35:00,62.7,53.5,29.96,NNW,337,2.0,6.0,72,0.00,,---,0.00,VWS V14.01,2013-06-13 11:35:00,
2013-06-13 06:40:00,62.7,53.5,29.96,North,360,3.0,6.0,72,0.00,,---,0.00,VWS V14.01,2013-06-13 11:40:00,
2013-06-13 06:45:00,62.9,53.8,29.97,NNW,343,4.0,8.0,72,0.00,,---,0.00,VWS V14.01,2013-06-13 11:45:00,
2013-06-13 06:50:00,63.1,53.9,29.97,NNW,348,2.0,8.0,72,0.00,,---,0.00,VWS V14.01,2013-06-13 11:50:00,
2013-06-13 06:55:00,63.2,54.0,29.97,North,350,4.0,8.0,72,0.00,,---,0.00,VWS V14.01,2013-06-13 11:55:00,
2013-06-13 07:00:00,63.2,54.0,29.98,NNW,338,2.0,8.0,72,0.00,,---,0.00,VWS V14.01,2013-06-13 12:00:00,
2013-06-13 07:05:00,63.4,54.2,29.98,NNW,346,4.0,10.0,72,0.00,,---,0.00,VWS V14.01,2013-06-13 12:05:00,
2013-06-13 07:10:00,63.5,54.3,29.98,NNE,30,3.0,10.0,72,0.00,,---,0.00,VWS V14.01,2013-06-13 12:10:00,
2013-06-13 07:15:00,63.7,54.5,29.98,North,350,6.0,10.0,72,0.00,,---,0.00,VWS V14.01,2013-06-13 12:15:00,
2013-06-13 07:20:00,63.9,54.7,29.98,NNW,327,5.0,10.0,72,0.00,,---,0.00,VWS V14.01,2013-06-13 12:20:00,
2013-06-13 07:25:00,64.0,54.8,29.98,North,360,5.0,10.0,72,0.00,,---,0.00,VWS V14.01,2013-06-13 12:25:00,
2013-06-13 07:30:00,64.2,55.0,29.98,North,5,6.0,10.0,72,0.00,,---,0.00,VWS V14.01,2013-06-13 12:30:00,
2013-06-13 07:35:00,64.5,55.3,29.98,North,11,6.0,10.0,72,0.00,,---,0.00,VWS V14.01,2013-06-13 12:35:00,
2013-06-13 07:40:00,64.7,55.5,29.98,NNW,348,5.0,10.0,72,0.00,,---,0.00,VWS V14.01,2013-06-13 12:40:00,
2013-06-13 07:45:00,64.8,55.6,29.98,NNW,345,6.0,11.0,72,0.00,,---,0.00,VWS V14.01,2013-06-13 12:45:00,
2013-06-13 07:50:00,65.2,56.0,29.98,North,355,9.0,11.0,72,0.00,,---,0.00,VWS V14.01,2013-06-13 12:50:00,
2013-06-13 07:55:00,65.3,56.0,29.98,NNW,333,6.0,11.0,72,0.00,,---,0.00,VWS V14.01,2013-06-13 12:55:00,
2013-06-13 08:00:00,65.6,56.3,29.98,NNW,336,6.0,11.0,72,0.00,,---,0.00,VWS V14.01,2013-06-13 13:00:00,
2013-06-13 08:05:00,66.0,56.3,29.98,NNW,343,8.0,10.0,71,0.00,,---,0.00,VWS V14.01,2013-06-13 13:05:00,
2013-06-13 08:10:00,66.3,56.6,29.98,North,355,6.0,11.0,71,0.00,,---,0.00,VWS V14.01,2013-06-13 13:10:00,
2013-06-13 08:15:00,66.6,56.9,29.98,North,355,4.0,11.0,71,0.00,,---,0.00,VWS V14.01,2013-06-13 13:15:00,
2013-06-13 08:20:00,66.9,57.2,29.98,NNE,21,5.0,11.0,71,0.00,,---,0.00,VWS V14.01,2013-06-13 13:20:00,
2013-06-13 08:25:00,67.1,57.4,29.98,NNW,335,4.0,12.0,71,0.00,,---,0.00,VWS V14.01,2013-06-13 13:25:00,
2013-06-13 08:30:00,67.3,57.2,29.98,NNE,17,5.0,12.0,70,0.00,,---,0.00,VWS V14.01,2013-06-13 13:30:00,
2013-06-13 08:35:00,67.4,57.3,29.98,North,355,7.0,10.0,70,0.00,,---,0.00,VWS V14.01,2013-06-13 13:35:00,
2013-06-13 08:40:00,67.6,57.5,29.98,North,355,6.0,10.0,70,0.00,,---,0.00,VWS V14.01,2013-06-13 13:40:00,
2013-06-13 08:45:00,67.9,57.8,29.98,NNW,348,6.0,13.0,70,0.00,,---,0.00,VWS V14.01,2013-06-13 13:45:00,
2013-06-13 08:50:00,68.3,58.2,29.98,NNE,17,1.0,13.0,70,0.00,,---,0.00,VWS V14.01,2013-06-13 13:50:00,
2013-06-13 08:55:00,68.6,58.4,29.98,North,355,5.0,13.0,70,0.00,,---,0.00,VWS V14.01,2013-06-13 13:55:00,
2013-06-13 09:00:00,68.8,58.2,29.99,NNE,28,4.0,13.0,69,0.00,,---,0.00,VWS V14.01,2013-06-13 14:00:00,
2013-06-13 09:05:00,69.1,58.5,29.99,NNW,330,2.0,7.0,69,0.00,,---,0.00,VWS V14.01,2013-06-13 14:05:00,
2013-06-13 09:10:00,69.6,59.0,29.99,North,5,0.0,9.0,69,0.00,,---,0.00,VWS V14.01,2013-06-13 14:10:00,
2013-06-13 09:15:00,69.9,59.3,30.00,North,360,5.0,9.0,69,0.00,,---,0.00,VWS V14.01,2013-06-13 14:15:00,
2013-06-13 09:20:00,69.9,58.9,30.00,NNE,15,5.0,9.0,68,0.00,,---,0.00,VWS V14.01,2013-06-13 14:20:00,
2013-06-13 09:25:00,70.1,59.1,30.00,NNW,339,5.0,9.0,68,0.00,,---,0.00,VWS V14.01,2013-06-13 14:25:00,
2013-06-13 09:30:00,70.4,59.3,29.99,North,5,2.0,9.0,68,0.00,,---,0.00,VWS V14.01,2013-06-13 14:30:00,
2013-06-13 09:35:00,70.9,59.8,29.99,NNW,331,7.0,7.0,68,0.00,,---,0.00,VWS V14.01,2013-06-13 14:35:00,
2013-06-13 09:40:00,71.1,60.0,29.99,NNW,342,4.0,7.0,68,0.00,,---,0.00,VWS V14.01,2013-06-13 14:40:00,
2013-06-13 09:45:00,71.3,60.2,29.99,North,5,6.0,8.0,68,0.00,,---,0.00,VWS V14.01,2013-06-13 14:45:00,
2013-06-13 09:50:00,71.5,60.4,29.99,NNE,13,2.0,8.0,68,0.00,,---,0.00,VWS V14.01,2013-06-13 14:50:00,
2013-06-13 09:55:00,71.8,60.3,29.99,North,355,1.0,8.0,67,0.00,,---,0.00,VWS V14.01,2013-06-13 14:55:00,
2013-06-13 10:00:00,72.1,60.5,29.99,North,350,5.0,8.0,67,0.00,,---,0.00,VWS V14.01,2013-06-13 15:00:00,
2013-06-13 10:05:00,72.3,60.7,29.99,North,11,1.0,5.0,67,0.00,,---,0.00,VWS V14.01,2013-06-13 15:05:00,
2013-06-13 10:10:00,72.8,61.2,29.99,North,360,3.0,7.0,67,0.00,,---,0.00,VWS V14.01,2013-06-13 15:10:00,
2013-06-13 10:15:00,73.2,61.6,29.99,NNE,31,3.0,7.0,67,0.00,,---,0.00,VWS V14.01,2013-06-13 15:15:00,
2013-06-13 10:20:00,73.2,61.2,29.99,NNE,25,3.0,7.0,66,0.00,,---,0.00,VWS V14.01,2013-06-13 15:20:00,
2013-06-13 10:25:00,73.5,61.5,29.99,NNE,15,3.0,7.0,66,0.00,,---,0.00,VWS V14.01,2013-06-13 15:25:00,
2013-06-13 10:30:00,73.9,61.8,30.00,NNE,29,2.0,7.0,66,0.00,,---,0.00,VWS V14.01,2013-06-13 15:30:00,
2013-06-13 10:35:00,74.0,61.9,30.00,NE,52,5.0,6.0,66,0.00,,---,0.00,VWS V14.01,2013-06-13 15:35:00,
2013-06-13 10:40:00,74.0,61.5,30.00,NE,53,3.0,7.0,65,0.00,,---,0.00,VWS V14.01,2013-06-13 15:40:00,
2013-06-13 10:45:00,74.2,62.1,30.00,NNE,32,2.0,7.0,66,0.00,,---,0.00,VWS V14.01,2013-06-13 15:45:00,
2013-06-13 10:50:00,74.6,62.1,30.00,North,9,5.0,7.0,65,0.00,,---,0.00,VWS V14.01,2013-06-13 15:50:00,
2013-06-13 10:55:00,74.7,62.2,30.00,North,351,0.0,8.0,65,0.00,,---,0.00,VWS V14.01,2013-06-13 15:55:00,
2013-06-13 11:00:00,75.1,62.5,30.00,NNE,25,4.0,10.0,65,0.00,,---,0.00,VWS V14.01,2013-06-13 16:00:00,
2013-06-13 11:05:00,75.3,62.3,30.00,NNE,30,3.0,8.0,64,0.00,,---,0.00,VWS V14.01,2013-06-13 16:05:00,
2013-06-13 11:10:00,75.4,62.4,30.00,ENE,65,5.0,8.0,64,0.00,,---,0.00,VWS V14.01,2013-06-13 16:10:00,
2013-06-13 11:15:00,75.6,62.6,30.00,NE,42,3.0,8.0,64,0.00,,---,0.00,VWS V14.01,2013-06-13 16:15:00,
2013-06-13 11:20:00,76.0,63.0,30.00,North,9,7.0,8.0,64,0.00,,---,0.00,VWS V14.01,2013-06-13 16:20:00,
2013-06-13 11:25:00,76.3,63.2,30.00,North,355,4.0,8.0,64,0.00,,---,0.00,VWS V14.01,2013-06-13 16:25:00,
2013-06-13 11:30:00,76.5,63.4,30.00,NE,51,3.0,8.0,64,0.00,,---,0.00,VWS V14.01,2013-06-13 16:30:00,
2013-06-13 11:35:00,76.7,63.2,30.00,NNE,16,5.0,5.0,63,0.00,,---,0.00,VWS V14.01,2013-06-13 16:35:00,
2013-06-13 11:40:00,76.8,63.3,30.00,NNE,14,6.0,7.0,63,0.00,,---,0.00,VWS V14.01,2013-06-13 16:40:00,
2013-06-13 11:45:00,77.0,63.0,30.00,NE,44,3.0,7.0,62,0.00,,---,0.00,VWS V14.01,2013-06-13 16:45:00,
2013-06-13 11:50:00,77.0,63.0,30.00,NE,37,2.0,9.0,62,0.00,,---,0.00,VWS V14.01,2013-06-13 16:50:00,
2013-06-13 11:55:00,77.4,63.4,30.00,NNW,339,6.0,9.0,62,0.00,,---,0.00,VWS V14.01,2013-06-13 16:55:00,
2013-06-13 11:59:00,77.4,62.9,29.99,North,360,5.0,10.0,61,0.00,,---,0.00,VWS V14.01,2013-06-13 16:59:00,
2013-06-13 12:00:00,75.1,62.1,30.00,NE,40,2.0,10.0,64,0.00,,---,0.00,VWS V14.01,2013-06-13 17:00:00,
2013-06-13 12:04:00,77.2,62.2,29.99,NNE,23,3.0,5.0,60,0.00,,---,0.00,VWS V14.01,2013-06-13 17:04:00,
2013-06-13 12:09:00,77.4,62.4,29.99,NNW,336,2.0,7.0,60,0.00,,---,0.00,VWS V14.01,2013-06-13 17:09:00,
2013-06-13 12:14:00,77.9,62.9,29.99,NNW,341,4.0,7.0,60,0.00,,---,0.00,VWS V14.01,2013-06-13 17:14:00,
2013-06-13 12:19:00,78.1,62.6,29.99,North,5,3.0,7.0,59,0.00,,---,0.00,VWS V14.01,2013-06-13 17:19:00,
2013-06-13 12:24:00,78.3,62.8,29.99,NNE,32,2.0,7.0,59,0.00,,---,0.00,VWS V14.01,2013-06-13 17:24:00,
2013-06-13 12:29:00,78.6,63.1,29.98,NNE,29,1.0,7.0,59,0.00,,---,0.00,VWS V14.01,2013-06-13 17:29:00,
2013-06-13 12:30:00,76.7,63.6,30.00,NE,50,3.0,8.0,64,0.00,,---,0.00,VWS V14.01,2013-06-13 17:30:00,
2013-06-13 12:34:00,78.6,63.1,29.98,ENE,75,2.0,9.0,59,0.00,,---,0.00,VWS V14.01,2013-06-13 17:34:00,
2013-06-13 12:39:00,78.8,63.3,29.98,East,96,5.0,9.0,59,0.00,,---,0.00,VWS V14.01,2013-06-13 17:39:00,
2013-06-13 12:44:00,79.0,63.0,29.98,NE,42,3.0,9.0,58,0.00,,---,0.00,VWS V14.01,2013-06-13 17:44:00,
2013-06-13 12:50:00,79.2,63.2,29.98,NE,43,2.0,9.0,58,0.00,,---,0.00,VWS V14.01,2013-06-13 17:50:00,
2013-06-13 12:54:00,79.2,63.2,29.98,NE,35,3.0,9.0,58,0.00,,---,0.00,VWS V14.01,2013-06-13 17:54:00,
2013-06-13 12:59:00,79.6,63.5,29.98,North,360,6.0,9.0,58,0.00,,---,0.00,VWS V14.01,2013-06-13 17:59:00,
2013-06-13 13:00:00,77.4,62.9,29.99,NE,44,4.0,10.0,61,0.00,,---,0.00,VWS V14.01,2013-06-13 18:00:00,
2013-06-13 13:04:00,79.6,63.0,29.98,North,360,1.0,7.0,57,0.00,,---,0.00,VWS V14.01,2013-06-13 18:04:00,
2013-06-13 13:09:00,79.9,63.8,29.98,NNE,21,7.0,7.0,58,0.00,,---,0.00,VWS V14.01,2013-06-13 18:09:00,
2013-06-13 13:14:00,80.1,63.5,29.97,NE,39,2.0,7.0,57,0.00,,---,0.00,VWS V14.01,2013-06-13 18:14:00,
2013-06-13 13:19:00,80.1,63.5,29.97,East,92,3.0,7.0,57,0.00,,---,0.00,VWS V14.01,2013-06-13 18:19:00,
2013-06-13 13:24:00,79.9,62.8,29.97,East,92,0.0,7.0,56,0.00,,---,0.00,VWS V14.01,2013-06-13 18:24:00,
2013-06-13 13:29:00,80.3,63.2,29.98,East,84,5.0,7.0,56,0.00,,---,0.00,VWS V14.01,2013-06-13 18:29:00,
2013-06-13 13:30:00,78.6,63.1,29.98,NNE,32,4.0,7.0,59,0.00,,---,0.00,VWS V14.01,2013-06-13 18:30:00,
2013-06-13 13:34:00,80.5,62.9,29.98,East,98,1.0,7.0,55,0.00,,---,0.00,VWS V14.01,2013-06-13 18:34:00,
2013-06-13 13:39:00,80.7,63.0,29.98,ESE,116,8.0,8.0,55,0.00,,---,0.00,VWS V14.01,2013-06-13 18:39:00,
2013-06-13 13:44:00,80.9,63.2,29.98,NNE,33,3.0,8.0,55,0.00,,---,0.00,VWS V14.01,2013-06-13 18:44:00,
2013-06-13 13:49:00,80.9,63.2,29.98,NNE,22,1.0,8.0,55,0.00,,---,0.00,VWS V14.01,2013-06-13 18:49:00,
2013-06-13 13:54:00,81.2,63.0,29.98,NE,43,1.0,8.0,54,0.00,,---,0.00,VWS V14.01,2013-06-13 18:54:00,
2013-06-13 13:59:00,81.6,63.4,29.97,NE,49,2.0,8.0,54,0.00,,---,0.00,VWS V14.01,2013-06-13 18:59:00,
2013-06-13 14:00:00,79.6,63.5,29.98,North,360,4.0,9.0,58,0.00,,---,0.00,VWS V14.01,2013-06-13 19:00:00,
2013-06-13 14:04:00,81.8,63.5,29.97,East,100,5.0,5.0,54,0.00,,---,0.00,VWS V14.01,2013-06-13 19:04:00,
2013-06-13 14:09:00,81.8,63.5,29.97,ENE,74,1.0,6.0,54,0.00,,---,0.00,VWS V14.01,2013-06-13 19:09:00,
2013-06-13 14:14:00,81.8,63.0,29.97,NNE,23,1.0,6.0,53,0.00,,---,0.00,VWS V14.01,2013-06-13 19:14:00,
2013-06-13 14:19:00,81.8,63.0,29.97,East,101,3.0,7.0,53,0.00,,---,0.00,VWS V14.01,2013-06-13 19:19:00,
2013-06-13 14:24:00,82.0,63.2,29.97,ENE,78,0.0,7.0,53,0.00,,---,0.00,VWS V14.01,2013-06-13 19:24:00,
2013-06-13 14:29:00,82.0,62.7,29.97,ENE,74,1.0,7.0,52,0.00,,---,0.00,VWS V14.01,2013-06-13 19:29:00,
2013-06-13 14:30:00,80.5,63.9,29.98,East,83,1.0,7.0,57,0.00,,---,0.00,VWS V14.01,2013-06-13 19:30:00,
2013-06-13 14:34:00,82.0,62.1,29.97,East,101,2.0,6.0,51,0.00,,---,0.00,VWS V14.01,2013-06-13 19:34:00,
2013-06-13 14:39:00,82.0,62.1,29.97,East,100,0.0,6.0,51,0.00,,---,0.00,VWS V14.01,2013-06-13 19:39:00,
2013-06-13 14:44:00,82.4,62.5,29.97,SW,219,1.0,6.0,51,0.00,,---,0.00,VWS V14.01,2013-06-13 19:44:00,
2013-06-13 14:49:00,82.8,62.8,29.97,ESE,123,0.0,6.0,51,0.00,,---,0.00,VWS V14.01,2013-06-13 19:49:00,
2013-06-13 14:54:00,83.2,63.2,29.97,NNW,346,4.0,6.0,51,0.00,,---,0.00,VWS V14.01,2013-06-13 19:54:00,
2013-06-13 14:59:00,83.0,62.5,29.97,NNW,346,0.0,6.0,50,0.00,,---,0.00,VWS V14.01,2013-06-13 19:59:00,
2013-06-13 15:00:00,81.6,63.4,29.97,NE,49,1.0,8.0,54,0.00,,---,0.00,VWS V14.01,2013-06-13 20:00:00,
2013-06-13 15:04:00,83.0,62.5,29.97,East,82,3.0,6.0,50,0.00,,---,0.00,VWS V14.01,2013-06-13 20:04:00,
2013-06-13 15:09:00,82.8,61.7,29.97,East,94,0.0,7.0,49,0.00,,---,0.00,VWS V14.01,2013-06-13 20:09:00,
2013-06-13 15:14:00,82.8,62.3,29.97,SSE,153,2.0,7.0,50,0.00,,---,0.00,VWS V14.01,2013-06-13 20:14:00,
2013-06-13 15:19:00,83.2,62.1,29.97,ESE,122,2.0,7.0,49,0.00,,---,0.00,VWS V14.01,2013-06-13 20:19:00,
2013-06-13 15:24:00,83.4,62.3,29.97,East,82,3.0,7.0,49,0.00,,---,0.00,VWS V14.01,2013-06-13 20:24:00,
2013-06-13 15:29:00,83.4,62.3,29.97,East,88,0.0,7.0,49,0.00,,---,0.00,VWS V14.01,2013-06-13 20:29:00,
2013-06-13 15:30:00,82.0,62.7,29.97,South,176,2.0,7.0,52,0.00,,---,0.00,VWS V14.01,2013-06-13 20:30:00,
2013-06-13 15:34:00,83.4,62.3,29.97,NNE,12,3.0,4.0,49,0.00,,---,0.00,VWS V14.01,2013-06-13 20:34:00,
2013-06-13 15:39:00,83.4,62.3,29.97,NNE,13,1.0,4.0,49,0.00,,---,0.00,VWS V14.01,2013-06-13 20:39:00,
2013-06-13 15:44:00,83.6,63.0,29.97,NNE,15,2.0,4.0,50,0.00,,---,0.00,VWS V14.01,2013-06-13 20:44:00,
2013-06-13 15:49:00,83.8,62.6,29.96,NNE,29,1.0,4.0,49,0.00,,---,0.00,VWS V14.01,2013-06-13 20:49:00,
2013-06-13 15:54:00,83.8,62.6,29.96,NE,49,5.0,6.0,49,0.00,,---,0.00,VWS V14.01,2013-06-13 20:54:00,
2013-06-13 15:59:00,83.2,61.5,29.96,SSE,147,1.0,6.0,48,0.00,,---,0.00,VWS V14.01,2013-06-13 20:59:00,
2013-06-13 16:00:00,83.0,62.5,29.97,NNW,346,1.0,6.0,50,0.00,,---,0.00,VWS V14.01,2013-06-13 21:00:00,
2013-06-13 16:04:00,83.2,62.1,29.95,NE,55,3.0,4.0,49,0.00,,---,0.00,VWS V14.01,2013-06-13 21:04:00,
2013-06-13 16:09:00,83.0,61.3,29.95,SE,128,1.0,4.0,48,0.00,,---,0.00,VWS V14.01,2013-06-13 21:09:00,
2013-06-13 16:14:00,83.0,61.3,29.95,SSE,147,0.0,4.0,48,0.00,,---,0.00,VWS V14.01,2013-06-13 21:14:00,
2013-06-13 16:19:00,83.2,62.1,29.95,SSE,147,1.0,4.0,49,0.00,,---,0.00,VWS V14.01,2013-06-13 21:19:00,
2013-06-13 16:24:00,83.2,62.1,29.95,ENE,67,3.0,4.0,49,0.00,,---,0.00,VWS V14.01,2013-06-13 21:24:00,
2013-06-13 16:29:00,82.8,61.7,29.95,North,355,0.0,5.0,49,0.00,,---,0.00,VWS V14.01,2013-06-13 21:29:00,
2013-06-13 16:30:00,83.4,59.8,29.97,ENE,76,2.0,7.0,45,0.00,,---,0.00,VWS V14.01,2013-06-13 21:30:00,
2013-06-13 16:34:00,82.6,61.5,29.95,ESE,115,2.0,5.0,49,0.00,,---,0.00,VWS V14.01,2013-06-13 21:34:00,
2013-06-13 16:39:00,82.4,61.3,29.95,East,80,3.0,7.0,49,0.00,,---,0.00,VWS V14.01,2013-06-13 21:39:00,
2013-06-13 16:44:00,82.2,61.2,29.95,East,82,3.0,7.0,49,0.00,,---,0.00,VWS V14.01,2013-06-13 21:44:00,
2013-06-13 16:49:00,82.2,61.2,29.95,ESE,121,4.0,7.0,49,0.00,,---,0.00,VWS V14.01,2013-06-13 21:49:00,
2013-06-13 16:54:00,82.2,61.2,29.95,ENE,77,1.0,7.0,49,0.00,,---,0.00,VWS V14.01,2013-06-13 21:54:00,
2013-06-13 16:59:00,82.0,61.0,29.95,East,82,0.0,7.0,49,0.00,,---,0.00,VWS V14.01,2013-06-13 21:59:00,
2013-06-13 17:00:00,83.2,61.5,29.95,SSE,147,0.0,6.0,48,0.00,,---,0.00,VWS V14.01,2013-06-13 22:00:00,
2013-06-13 17:04:00,82.0,61.0,29.95,ENE,69,5.0,6.0,49,0.00,,---,0.00,VWS V14.01,2013-06-13 22:04:00,
2013-06-13 17:09:00,82.2,61.7,29.95,SE,146,0.0,6.0,50,0.00,,---,0.00,VWS V14.01,2013-06-13 22:09:00,
2013-06-13 17:14:00,82.6,62.1,29.95,SE,130,0.0,6.0,50,0.00,,---,0.00,VWS V14.01,2013-06-13 22:14:00,
2013-06-13 17:19:00,82.6,62.1,29.97,North,5,3.0,6.0,50,0.00,,---,0.00,VWS V14.01,2013-06-13 22:19:00,
2013-06-13 17:24:00,82.6,62.7,29.97,North,5,1.0,6.0,51,0.00,,---,0.00,VWS V14.01,2013-06-13 22:24:00,
2013-06-13 17:29:00,82.6,62.7,29.97,North,355,5.0,7.0,51,0.00,,---,0.00,VWS V14.01,2013-06-13 22:29:00,
2013-06-13 17:30:00,82.8,61.7,29.95,North,355,1.0,5.0,49,0.00,,---,0.00,VWS V14.01,2013-06-13 22:30:00,
2013-06-13 17:34:00,82.0,62.1,29.98,NNW,332,6.0,10.0,51,0.00,,---,0.00,VWS V14.01,2013-06-13 22:34:00,
2013-06-13 17:39:00,81.4,61.5,29.98,ENE,58,8.0,16.0,51,0.00,,---,0.00,VWS V14.01,2013-06-13 22:39:00,
2013-06-13 17:44:00,81.1,61.8,29.98,North,355,5.0,16.0,52,0.00,,---,0.00,VWS V14.01,2013-06-13 22:44:00,
2013-06-13 17:49:00,80.7,61.5,29.97,North,5,5.0,16.0,52,0.00,,---,0.00,VWS V14.01,2013-06-13 22:49:00,
2013-06-13 17:54:00,80.7,61.5,29.97,NNW,335,8.0,16.0,52,0.00,,---,0.00,VWS V14.01,2013-06-13 22:54:00,
2013-06-13 17:59:00,80.7,62.0,29.97,North,5,5.0,16.0,53,0.00,,---,0.00,VWS V14.01,2013-06-13 22:59:00,
2013-06-13 18:00:00,82.0,61.0,29.95,East,82,0.0,7.0,49,0.00,,---,0.00,VWS V14.01,2013-06-13 23:00:00,
2013-06-13 18:04:00,80.7,62.0,29.97,NNE,24,8.0,11.0,53,0.00,,---,0.00,VWS V14.01,2013-06-13 23:04:00,
2013-06-13 18:09:00,80.5,62.3,29.97,NNE,21,2.0,11.0,54,0.00,,---,0.00,VWS V14.01,2013-06-13 23:09:00,
2013-06-13 18:14:00,80.3,62.2,29.97,North,5,5.0,11.0,54,0.00,,---,0.00,VWS V14.01,2013-06-13 23:14:00,
2013-06-13 18:19:00,80.1,62.0,29.95,East,90,3.0,11.0,54,0.00,,---,0.00,VWS V14.01,2013-06-13 23:19:00,
2013-06-13 18:24:00,79.8,61.7,29.95,NE,51,1.0,11.0,54,0.00,,---,0.00,VWS V14.01,2013-06-13 23:24:00,
2013-06-13 18:29:00,79.6,61.5,29.95,NE,45,2.0,11.0,54,0.00,,---,0.00,VWS V14.01,2013-06-13 23:29:00,
2013-06-13 18:30:00,82.4,62.5,29.98,NNE,12,8.0,8.0,51,0.00,,---,0.00,VWS V14.01,2013-06-13 23:30:00,
2013-06-13 18:34:00,79.4,61.3,29.94,NE,49,0.0,7.0,54,0.00,,---,0.00,VWS V14.01,2013-06-13 23:34:00,
2013-06-13 18:39:00,79.2,61.1,29.94,NE,49,0.0,7.0,54,0.00,,---,0.00,VWS V14.01,2013-06-13 23:39:00,
2013-06-13 18:44:00,79.2,61.1,29.94,NNE,12,3.0,7.0,54,0.00,,---,0.00,VWS V14.01,2013-06-13 23:44:00,
2013-06-13 18:49:00,79.2,61.1,29.95,North,5,4.0,7.0,54,0.00,,---,0.00,VWS V14.01,2013-06-13 23:49:00,
2013-06-13 18:54:00,79.0,61.0,29.95,North,360,3.0,7.0,54,0.00,,---,0.00,VWS V14.01,2013-06-13 23:54:00,
2013-06-13 18:59:00,79.0,61.0,29.95,ENE,57,5.0,7.0,54,0.00,,---,0.00,VWS V14.01,2013-06-13 23:59:00,
2013-06-13 19:00:00,80.7,62.0,29.97,North,360,8.0,16.0,53,0.00,,---,0.00,VWS V14.01,2013-06-14 00:00:00,
2013-06-13 19:04:00,78.8,60.8,29.95,ENE,57,0.0,3.0,54,0.00,,---,0.00,VWS V14.01,2013-06-14 00:04:00,
2013-06-13 19:09:00,78.8,61.3,29.95,NE,53,1.0,4.0,55,0.00,,---,0.00,VWS V14.01,2013-06-14 00:09:00,
2013-06-13 19:14:00,78.6,61.1,29.95,NE,53,3.0,4.0,55,0.00,,---,0.00,VWS V14.01,2013-06-14 00:14:00,
2013-06-13 19:19:00,78.6,61.6,29.95,NE,53,1.0,4.0,56,0.00,,---,0.00,VWS V14.01,2013-06-14 00:19:00,
2013-06-13 19:24:00,78.6,61.6,29.95,ENE,74,1.0,4.0,56,0.00,,---,0.00,VWS V14.01,2013-06-14 00:24:00,
2013-06-13 19:29:00,78.6,61.6,29.95,NNE,24,1.0,4.0,56,0.00,,---,0.00,VWS V14.01,2013-06-14 00:29:00,
2013-06-13 19:30:00,79.6,61.5,29.94,NE,35,2.0,11.0,54,0.00,,---,0.00,VWS V14.01,2013-06-14 00:30:00,
2013-06-13 19:34:00,78.6,61.6,29.94,East,97,2.0,6.0,56,0.00,,---,0.00,VWS V14.01,2013-06-14 00:34:00,
2013-06-13 19:39:00,78.6,61.6,29.94,ESE,105,0.0,7.0,56,0.00,,---,0.00,VWS V14.01,2013-06-14 00:39:00,
2013-06-13 19:44:00,78.6,61.6,29.94,NE,54,0.0,7.0,56,0.00,,---,0.00,VWS V14.01,2013-06-14 00:44:00,
2013-06-13 19:49:00,78.5,62.0,29.94,NE,54,0.0,7.0,57,0.00,,---,0.00,VWS V14.01,2013-06-14 00:49:00,
2013-06-13 19:54:00,78.3,61.8,29.94,NE,38,0.0,7.0,57,0.00,,---,0.00,VWS V14.01,2013-06-14 00:54:00,
2013-06-13 19:59:00,78.1,61.6,29.94,NE,51,0.0,7.0,57,0.00,,---,0.00,VWS V14.01,2013-06-14 00:59:00,
2013-06-13 20:00:00,78.8,60.8,29.95,ENE,57,1.0,7.0,54,0.00,,---,0.00,VWS V14.01,2013-06-14 01:00:00,
2013-06-13 20:04:00,77.9,61.5,29.94,East,94,0.0,3.0,57,0.00,,---,0.00,VWS V14.01,2013-06-14 01:04:00,
2013-06-13 20:09:00,77.7,61.3,29.94,East,94,0.0,3.0,57,0.00,,---,0.00,VWS V14.01,2013-06-14 01:09:00,
2013-06-13 20:14:00,77.6,61.7,29.94,East,94,1.0,3.0,58,0.00,,---,0.00,VWS V14.01,2013-06-14 01:14:00,
2013-06-13 20:19:00,77.6,61.7,29.92,East,94,1.0,3.0,58,0.00,,---,0.00,VWS V14.01,2013-06-14 01:19:00,
2013-06-13 20:24:00,77.6,61.7,29.92,East,98,0.0,3.0,58,0.00,,---,0.00,VWS V14.01,2013-06-14 01:24:00,
2013-06-13 20:29:00,77.4,61.5,29.92,ESE,110,1.0,4.0,58,0.00,,---,0.00,VWS V14.01,2013-06-14 01:29:00,
2013-06-13 20:30:00,78.6,61.6,29.94,NE,39,2.0,4.0,56,0.00,,---,0.00,VWS V14.01,2013-06-14 01:30:00,
2013-06-13 20:34:00,77.2,61.3,29.92,ESE,122,0.0,3.0,58,0.00,,---,0.00,VWS V14.01,2013-06-14 01:34:00,
2013-06-13 20:39:00,77.0,61.6,29.92,SE,142,0.0,3.0,59,0.00,,---,0.00,VWS V14.01,2013-06-14 01:39:00,
2013-06-13 20:44:00,76.8,61.4,29.92,SE,144,1.0,3.0,59,0.00,,---,0.00,VWS V14.01,2013-06-14 01:44:00,
2013-06-13 20:49:00,76.7,61.3,29.92,SE,144,0.0,3.0,59,0.00,,---,0.00,VWS V14.01,2013-06-14 01:49:00,
2013-06-13 20:54:00,76.5,61.1,29.92,SE,146,0.0,3.0,59,0.00,,---,0.00,VWS V14.01,2013-06-14 01:54:00,
2013-06-13 20:59:00,76.3,61.4,29.92,SE,146,0.0,3.0,60,0.00,,---,0.00,VWS V14.01,2013-06-14 01:59:00,
2013-06-13 21:00:00,78.1,61.6,29.94,NE,51,1.0,7.0,57,0.00,,---,0.00,VWS V14.01,2013-06-14 02:00:00,
2013-06-13 21:04:00,76.0,61.1,29.92,SE,146,0.0,0.0,60,0.00,,---,0.00,VWS V14.01,2013-06-14 02:04:00,
2013-06-13 21:09:00,75.6,60.8,29.92,SE,146,0.0,0.0,60,0.00,,---,0.00,VWS V14.01,2013-06-14 02:09:00,
2013-06-13 21:14:00,75.3,60.9,29.92,SE,146,0.0,0.0,61,0.00,,---,0.00,VWS V14.01,2013-06-14 02:14:00,
2013-06-13 21:19:00,74.7,60.4,29.91,SE,146,0.0,0.0,61,0.00,,---,0.00,VWS V14.01,2013-06-14 02:19:00,
2013-06-13 21:24:00,74.2,60.4,29.91,SE,146,0.0,0.0,62,0.00,,---,0.00,VWS V14.01,2013-06-14 02:24:00,
2013-06-13 21:29:00,73.5,59.7,29.91,SE,146,0.0,0.0,62,0.00,,---,0.00,VWS V14.01,2013-06-14 02:29:00,
2013-06-13 21:30:00,77.4,61.5,29.92,ESE,117,2.0,4.0,58,0.00,,---,0.00,VWS V14.01,2013-06-14 02:30:00,
2013-06-13 21:34:00,72.8,59.5,29.91,SE,146,0.0,0.0,63,0.00,,---,0.00,VWS V14.01,2013-06-14 02:34:00,
2013-06-13 21:39:00,72.7,59.8,29.91,SE,146,0.0,0.0,64,0.00,,---,0.00,VWS V14.01,2013-06-14 02:39:00,
2013-06-13 21:44:00,72.5,59.6,29.91,SE,146,0.0,0.0,64,0.00,,---,0.00,VWS V14.01,2013-06-14 02:44:00,
2013-06-13 21:49:00,72.3,59.9,29.91,SE,146,1.0,2.0,65,0.00,,---,0.00,VWS V14.01,2013-06-14 02:49:00,
2013-06-13 21:54:00,72.5,60.1,29.91,SE,146,0.0,2.0,65,0.00,,---,0.00,VWS V14.01,2013-06-14 02:54:00,
2013-06-13 21:59:00,72.3,60.3,29.91,SE,146,0.0,2.0,66,0.00,,---,0.00,VWS V14.01,2013-06-14 02:59:00,
2013-06-13 22:00:00,76.1,61.2,29.92,SE,146,0.0,3.0,60,0.00,,---,0.00,VWS V14.01,2013-06-14 03:00:00,
2013-06-13 22:04:00,72.3,60.3,29.91,SE,146,0.0,1.0,66,0.00,,---,0.00,VWS V14.01,2013-06-14 03:04:00,
2013-06-13 22:09:00,72.3,60.3,29.91,SE,146,0.0,1.0,66,0.00,,---,0.00,VWS V14.01,2013-06-14 03:09:00,
2013-06-13 22:14:00,72.1,60.1,29.91,SE,146,0.0,1.0,66,0.00,,---,0.00,VWS V14.01,2013-06-14 03:14:00,
2013-06-13 22:19:00,72.0,60.5,29.91,SE,146,0.0,1.0,67,0.00,,---,0.00,VWS V14.01,2013-06-14 03:19:00,
2013-06-13 22:23:00,71.8,60.3,29.91,SE,146,0.0,1.0,67,0.00,,---,0.00,VWS V14.01,2013-06-14 03:23:00,
2013-06-13 22:28:00,71.5,60.0,29.91,SE,146,0.0,1.0,67,0.00,,---,0.00,VWS V14.01,2013-06-14 03:28:00,
2013-06-13 22:30:00,73.2,59.9,29.91,SE,146,0.0,0.0,63,0.00,,---,0.00,VWS V14.01,2013-06-14 03:30:00,
2013-06-13 22:33:00,71.1,60.0,29.91,SE,146,0.0,0.0,68,0.00,,---,0.00,VWS V14.01,2013-06-14 03:33:00,
2013-06-13 22:38:00,70.4,59.3,29.91,SE,146,0.0,0.0,68,0.00,,---,0.00,VWS V14.01,2013-06-14 03:38:00,
2013-06-13 22:43:00,70.1,59.1,29.91,SE,146,0.0,0.0,68,0.00,,---,0.00,VWS V14.01,2013-06-14 03:43:00,
2013-06-13 22:48:00,69.6,59.0,29.92,SE,146,0.0,0.0,69,0.00,,---,0.00,VWS V14.01,2013-06-14 03:48:00,
2013-06-13 22:53:00,68.9,58.3,29.92,SE,146,0.0,0.0,69,0.00,,---,0.00,VWS V14.01,2013-06-14 03:53:00,
2013-06-13 22:58:00,68.6,58.4,29.92,SE,146,0.0,0.0,70,0.00,,---,0.00,VWS V14.01,2013-06-14 03:58:00,
2013-06-13 23:00:00,72.3,60.3,29.91,SE,146,0.0,2.0,66,0.00,,---,0.00,VWS V14.01,2013-06-14 04:00:00,
2013-06-13 23:01:00,68.3,58.2,29.93,SE,146,0.0,0.0,70,0.00,,---,0.00,VWS V14.01,2013-06-14 04:01:00,
2013-06-13 23:06:00,67.9,57.8,29.93,SE,146,0.0,0.0,70,0.00,,---,0.00,VWS V14.01,2013-06-14 04:06:00,
2013-06-13 23:11:00,67.6,57.9,29.93,SE,146,0.0,0.0,71,0.00,,---,0.00,VWS V14.01,2013-06-14 04:11:00,
2013-06-13 23:16:00,67.3,58.0,29.93,SE,146,0.0,0.0,72,0.00,,---,0.00,VWS V14.01,2013-06-14 04:16:00,
2013-06-13 23:21:00,67.1,57.8,29.93,SE,146,0.0,0.0,72,0.00,,---,0.00,VWS V14.01,2013-06-14 04:21:00,
2013-06-13 23:26:00,66.8,57.9,29.93,SE,146,0.0,0.0,73,0.00,,---,0.00,VWS V14.01,2013-06-14 04:26:00,
2013-06-13 23:30:00,71.3,59.8,29.91,SE,146,0.0,1.0,67,0.00,,---,0.00,VWS V14.01,2013-06-14 04:30:00,
2013-06-13 23:31:00,66.4,57.5,29.93,SE,146,0.0,0.0,73,0.00,,---,0.00,VWS V14.01,2013-06-14 04:31:00,
2013-06-13 23:36:00,66.4,57.9,29.93,SE,146,0.0,0.0,74,0.00,,---,0.00,VWS V14.01,2013-06-14 04:36:00,
2013-06-13 23:41:00,66.4,57.9,29.93,SE,146,0.0,0.0,74,0.00,,---,0.00,VWS V14.01,2013-06-14 04:41:00,
2013-06-13 23:46:00,66.3,57.8,29.93,SE,146,0.0,0.0,74,0.00,,---,0.00,VWS V14.01,2013-06-14 04:46:00,
2013-06-13 23:51:00,66.1,57.6,29.93,SE,146,0.0,0.0,74,0.00,,---,0.00,VWS V14.01,2013-06-14 04:51:00,
2013-06-13 23:56:00,66.0,57.9,29.93,SE,146,0.0,0.0,75,0.00,,---,0.00,VWS V14.01,2013-06-14 04:56:00,